createdAt,value
2018-05-16T00:00:12.960Z,8.53
2018-05-16T00:02:42.334Z,7.70
2018-05-16T00:05:11.627Z,7.90
2018-05-16T00:07:43.202Z,7.13
2018-05-16T00:10:18.624Z,7.30
2018-05-16T00:12:50.599Z,6.90
2018-05-16T00:15:31.107Z,6.57
2018-05-16T00:18:01.435Z,7.03
2018-05-16T00:20:33.185Z,7.40
2018-05-16T00:23:01.511Z,7.07
2018-05-16T00:25:30.432Z,7.10
2018-05-16T00:27:59.505Z,7.17
2018-05-16T00:30:38.121Z,6.23
2018-05-16T00:33:09.149Z,6.20
2018-05-16T00:35:41.249Z,6.97
2018-05-16T00:38:11.332Z,6.50
2018-05-16T00:40:41.683Z,7.07
2018-05-16T00:43:17.507Z,7.23
2018-05-16T00:45:49.262Z,6.57
2018-05-16T00:48:21.050Z,6.83
2018-05-16T00:51:11.560Z,6.77
2018-05-16T00:54:04.244Z,7.13
2018-05-16T00:56:36.027Z,7.57
2018-05-16T00:59:06.461Z,6.83
2018-05-16T01:01:38.131Z,7.30
2018-05-16T01:04:20.374Z,7.33
2018-05-16T01:06:50.646Z,7.47
2018-05-16T01:09:24.289Z,7.53
2018-05-16T01:12:08.428Z,7.30
2018-05-16T01:14:41.793Z,7.90
2018-05-16T01:17:10.075Z,7.47
2018-05-16T01:19:40.181Z,7.03
2018-05-16T01:22:20.554Z,7.97
2018-05-16T01:24:49.839Z,7.47
2018-05-16T01:27:25.943Z,7.90
2018-05-16T01:29:58.300Z,6.87
2018-05-16T01:32:34.548Z,7.97
2018-05-16T01:35:04.869Z,7.57
2018-05-16T01:37:37.586Z,8.30
2018-05-16T01:40:16.374Z,7.67
2018-05-16T01:42:45.695Z,8.20
2018-05-16T01:45:18.373Z,7.70
2018-05-16T01:47:46.747Z,7.77
2018-05-16T01:50:17.067Z,7.67
2018-05-16T01:52:45.487Z,7.93
2018-05-16T01:55:14.783Z,8.53
2018-05-16T01:57:49.054Z,7.70
2018-05-16T02:00:20.833Z,7.43
2018-05-16T02:02:50.222Z,8.60
2018-05-16T02:05:22.399Z,8.37
2018-05-16T02:07:51.692Z,8.70
2018-05-16T02:10:29.886Z,9.10
2018-05-16T02:12:59.902Z,8.63
2018-05-16T02:15:31.891Z,8.73
2018-05-16T02:18:00.954Z,9.07
2018-05-16T02:20:42.093Z,8.37
2018-05-16T02:23:22.067Z,8.63
2018-05-16T02:25:51.317Z,9.17
2018-05-16T02:28:21.406Z,8.97
2018-05-16T02:30:58.197Z,8.63
2018-05-16T02:33:31.691Z,8.33
2018-05-16T02:35:59.997Z,8.70
2018-05-16T02:38:29.979Z,8.67
2018-05-16T02:41:00.247Z,8.40
2018-05-16T02:43:36.348Z,8.50
2018-05-16T02:46:11.180Z,8.20
2018-05-16T02:48:39.460Z,8.23
2018-05-16T02:51:11.333Z,9.40
2018-05-16T02:53:39.626Z,9.23
2018-05-16T02:56:07.944Z,9.47
2018-05-16T02:58:36.390Z,9.23
2018-05-16T03:01:05.475Z,9.73
2018-05-16T03:03:33.727Z,8.20
2018-05-16T03:06:03.223Z,8.63
2018-05-16T03:08:31.576Z,9.33
2018-05-16T03:10:59.902Z,9.40
2018-05-16T03:13:30.225Z,8.53
2018-05-16T03:16:00.568Z,7.93
2018-05-16T03:18:30.879Z,8.33
2018-05-16T03:20:59.158Z,8.03
2018-05-16T03:23:34.708Z,7.17
2018-05-16T03:26:02.956Z,7.10
2018-05-16T03:28:33.203Z,6.30
2018-05-16T03:31:08.466Z,6.37
2018-05-16T03:33:44.453Z,5.83
2018-05-16T03:36:13.711Z,4.43
2018-05-16T03:38:43.080Z,5.67
2018-05-16T03:41:14.858Z,5.00
2018-05-16T03:44:01.265Z,4.57
2018-05-16T03:46:29.550Z,5.23
2018-05-16T03:48:57.799Z,4.73
2018-05-16T03:51:45.835Z,5.23
2018-05-16T03:54:22.484Z,4.93
2018-05-16T03:56:59.382Z,4.70
2018-05-16T03:59:46.662Z,4.50
2018-05-16T04:02:35.836Z,4.10
2018-05-16T04:05:07.111Z,4.70
2018-05-16T04:07:47.775Z,4.63
2018-05-16T04:10:20.984Z,4.93
2018-05-16T04:12:51.241Z,4.90
2018-05-16T04:15:20.333Z,4.80
2018-05-16T04:17:49.389Z,4.30
2018-05-16T04:20:21.180Z,5.67
2018-05-16T04:22:54.968Z,4.93
2018-05-16T04:25:27.875Z,5.07
2018-05-16T04:28:00.535Z,6.13
2018-05-16T04:30:30.953Z,5.57
2018-05-16T04:33:05.867Z,5.47
2018-05-16T04:35:34.248Z,5.53
2018-05-16T04:38:14.911Z,6.10
2018-05-16T04:40:45.182Z,5.57
2018-05-16T04:43:26.190Z,5.60
2018-05-16T04:45:54.664Z,4.80
2018-05-16T04:48:23.911Z,5.33
2018-05-16T04:50:54.356Z,5.73
2018-05-16T04:53:23.007Z,5.47
2018-05-16T04:55:53.258Z,5.80
2018-05-16T04:58:22.537Z,5.77
2018-05-16T05:00:50.856Z,5.07
2018-05-16T05:03:19.111Z,5.43
2018-05-16T05:05:50.269Z,5.03
2018-05-16T05:08:20.505Z,5.83
2018-05-16T05:10:49.771Z,5.03
2018-05-16T05:13:23.891Z,5.67
2018-05-16T05:15:54.180Z,5.60
2018-05-16T05:18:29.574Z,4.53
2018-05-16T05:21:03.587Z,5.10
2018-05-16T05:23:36.527Z,4.80
2018-05-16T05:26:16.046Z,4.90
2018-05-16T05:28:46.571Z,4.97
2018-05-16T05:31:26.765Z,4.83
2018-05-16T05:33:55.091Z,5.50
2018-05-16T05:36:43.420Z,5.50
2018-05-16T05:39:12.595Z,5.53
2018-05-16T05:41:44.239Z,5.00
2018-05-16T05:44:18.699Z,4.70
2018-05-16T05:46:47.755Z,5.03
2018-05-16T05:49:21.979Z,4.83
2018-05-16T05:52:01.235Z,4.57
2018-05-16T05:54:33.672Z,4.63
2018-05-16T05:57:01.944Z,4.40
2018-05-16T05:59:33.711Z,5.00
2018-05-16T06:02:10.779Z,5.20
2018-05-16T06:04:39.053Z,5.50
2018-05-16T06:07:07.463Z,5.67
2018-05-16T06:10:01.524Z,5.53
2018-05-16T06:12:31.747Z,5.73
2018-05-16T06:15:00.131Z,5.97
2018-05-16T06:17:29.935Z,5.87
2018-05-16T06:20:10.473Z,5.73
2018-05-16T06:22:42.577Z,6.53
2018-05-16T06:25:14.341Z,6.10
2018-05-16T06:27:49.659Z,6.10
2018-05-16T06:30:19.903Z,6.80
2018-05-16T06:32:55.402Z,7.20
2018-05-16T06:35:29.569Z,8.00
2018-05-16T06:38:01.735Z,8.77
2018-05-16T06:40:45.919Z,7.90
2018-05-16T06:43:21.123Z,8.40
2018-05-16T06:45:54.854Z,8.90
2018-05-16T06:48:23.234Z,8.77
2018-05-16T06:50:55.039Z,9.17
2018-05-16T06:53:25.409Z,8.67
2018-05-16T06:55:56.417Z,8.93
2018-05-16T06:58:32.612Z,10.43
2018-05-16T07:01:02.923Z,9.20
2018-05-16T07:03:31.331Z,9.60
2018-05-16T07:06:07.154Z,8.93
2018-05-16T07:08:35.402Z,12.43
2018-05-16T07:11:21.719Z,19.73
2018-05-16T07:13:50.111Z,10.47
2018-05-16T07:16:24.131Z,11.30
2018-05-16T07:19:00.943Z,9.60
2018-05-16T07:21:49.012Z,9.40
2018-05-16T07:24:23.272Z,9.63
2018-05-16T07:27:00.408Z,9.83
2018-05-16T07:29:29.743Z,9.77
2018-05-16T07:31:57.999Z,10.10
2018-05-16T07:34:31.624Z,9.47
2018-05-16T07:37:00.911Z,9.60
2018-05-16T07:39:34.215Z,9.40
2018-05-16T07:42:02.454Z,9.00
2018-05-16T07:44:37.703Z,10.13
2018-05-16T07:47:11.748Z,10.93
2018-05-16T07:50:08.007Z,9.57
2018-05-16T07:52:39.295Z,10.77
2018-05-16T07:55:18.723Z,11.33
2018-05-16T07:57:48.039Z,10.70
2018-05-16T08:00:27.256Z,9.80
2018-05-16T08:02:55.567Z,10.00
2018-05-16T08:05:27.118Z,10.17
2018-05-16T08:07:55.417Z,10.33
2018-05-16T08:10:29.033Z,10.07
2018-05-16T08:13:04.246Z,9.80
2018-05-16T08:15:37.437Z,9.80
2018-05-16T08:18:08.005Z,10.13
2018-05-16T08:20:53.895Z,10.43
2018-05-16T08:23:35.561Z,10.00
2018-05-16T08:26:11.747Z,9.80
2018-05-16T08:28:43.962Z,10.67
2018-05-16T08:31:15.458Z,10.00
2018-05-16T08:33:51.159Z,8.90
2018-05-16T08:36:20.755Z,9.90
2018-05-16T08:38:49.539Z,9.90
2018-05-16T08:41:22.783Z,10.03
2018-05-16T08:43:56.640Z,9.63
2018-05-16T08:46:26.896Z,9.60
2018-05-16T08:49:00.204Z,9.73
2018-05-16T08:51:35.712Z,9.43
2018-05-16T08:54:08.903Z,8.43
2018-05-16T08:56:40.901Z,9.10
2018-05-16T08:59:19.456Z,9.07
2018-05-16T09:01:51.083Z,8.30
2018-05-16T09:04:23.707Z,8.43
2018-05-16T09:06:55.660Z,7.40
2018-05-16T09:09:24.054Z,7.63
2018-05-16T09:11:57.659Z,8.17
2018-05-16T09:14:26.952Z,7.77
2018-05-16T09:17:00.026Z,7.80
2018-05-16T09:19:28.327Z,6.30
2018-05-16T09:22:00.392Z,6.97
2018-05-16T09:24:28.661Z,6.93
2018-05-16T09:26:56.927Z,5.87
2018-05-16T09:29:25.799Z,5.20
2018-05-16T09:31:56.059Z,3.80
2018-05-16T09:34:25.139Z,4.77
2018-05-16T09:36:55.851Z,5.27
2018-05-16T09:39:32.745Z,4.43
2018-05-16T09:42:01.991Z,4.97
2018-05-16T09:44:30.340Z,4.63
2018-05-16T09:46:59.656Z,5.03
2018-05-16T09:49:27.982Z,5.57
2018-05-16T09:52:17.278Z,6.03
2018-05-16T09:54:56.235Z,4.33
2018-05-16T09:57:25.556Z,5.13
2018-05-16T09:59:56.585Z,5.37
2018-05-16T10:02:26.694Z,5.70
2018-05-16T10:04:56.383Z,5.17
2018-05-16T10:07:26.393Z,5.67
2018-05-16T10:09:56.020Z,5.10
2018-05-16T10:12:32.150Z,5.97
2018-05-16T10:15:05.374Z,5.30
2018-05-16T10:17:39.892Z,4.40
2018-05-16T10:20:19.021Z,5.03
2018-05-16T10:22:48.211Z,4.43
2018-05-16T10:25:21.681Z,5.30
2018-05-16T10:28:02.131Z,5.10
2018-05-16T10:30:37.910Z,5.57
2018-05-16T10:33:10.084Z,5.10
2018-05-16T10:35:49.009Z,5.77
2018-05-16T10:38:18.315Z,4.93
2018-05-16T10:40:53.573Z,5.67
2018-05-16T10:43:27.076Z,5.33
2018-05-16T10:45:59.037Z,5.50
2018-05-16T10:48:27.314Z,5.20
2018-05-16T10:50:59.163Z,4.90
2018-05-16T10:53:35.735Z,4.67
2018-05-16T10:56:07.675Z,5.20
2018-05-16T10:58:36.087Z,5.03
2018-05-16T11:01:10.987Z,4.47
2018-05-16T11:03:43.972Z,4.77
2018-05-16T11:06:19.327Z,4.70
2018-05-16T11:08:47.633Z,5.30
2018-05-16T11:11:18.788Z,5.10
2018-05-16T11:13:47.852Z,4.30
2018-05-16T11:16:26.363Z,4.53
2018-05-16T11:19:02.283Z,5.10
2018-05-16T11:21:31.540Z,5.90
2018-05-16T11:24:10.197Z,5.87
2018-05-16T11:26:42.331Z,5.90
2018-05-16T11:29:12.306Z,5.37
2018-05-16T11:31:48.476Z,4.83
2018-05-16T11:34:18.915Z,4.03
2018-05-16T11:36:48.239Z,3.93
2018-05-16T11:39:31.371Z,3.87
2018-05-16T11:42:03.834Z,4.33
2018-05-16T11:44:33.846Z,4.30
2018-05-16T11:47:02.094Z,4.87
2018-05-16T11:49:35.003Z,5.27
2018-05-16T11:52:17.442Z,5.60
2018-05-16T11:54:48.962Z,4.77
2018-05-16T11:57:23.525Z,4.20
2018-05-16T12:00:02.484Z,3.90
2018-05-16T12:02:30.763Z,3.77
2018-05-16T12:05:10.099Z,3.70
2018-05-16T12:07:52.521Z,3.40
2018-05-16T12:10:21.871Z,2.60
2018-05-16T12:12:51.123Z,2.83
2018-05-16T12:15:36.451Z,2.63
2018-05-16T12:18:17.147Z,2.30
2018-05-16T12:20:45.602Z,2.60
2018-05-16T12:23:17.457Z,2.60
2018-05-16T12:25:46.712Z,2.87
2018-05-16T12:28:24.968Z,1.97
2018-05-16T12:30:56.570Z,2.23
2018-05-16T12:33:25.887Z,2.47
2018-05-16T12:36:00.750Z,2.40
2018-05-16T12:38:29.099Z,2.40
2018-05-16T12:41:00.542Z,3.40
2018-05-16T12:43:31.632Z,4.40
2018-05-16T12:46:00.284Z,3.00
2018-05-16T12:48:30.473Z,2.50
2018-05-16T12:51:00.723Z,2.90
2018-05-16T12:53:33.119Z,3.47
2018-05-16T12:56:06.193Z,3.20
2018-05-16T12:58:41.984Z,3.50
2018-05-16T13:01:19.467Z,3.70
2018-05-16T13:03:55.871Z,3.70
2018-05-16T13:06:27.766Z,3.80
2018-05-16T13:11:49.675Z,4.30
2018-05-16T13:14:21.564Z,5.20
2018-05-16T13:16:53.150Z,4.50
2018-05-16T13:19:27.571Z,5.47
2018-05-16T13:22:07.856Z,4.87
2018-05-16T13:24:45.729Z,4.60
2018-05-16T13:27:14.147Z,4.67
2018-05-16T13:29:47.108Z,4.80
2018-05-16T13:32:38.344Z,4.87
2018-05-16T13:35:10.062Z,7.23
2018-05-16T13:37:42.604Z,4.33
2018-05-16T13:42:53.973Z,4.67
2018-05-16T13:45:37.313Z,4.80
2018-05-16T13:48:23.868Z,5.93
2018-05-16T13:51:05.619Z,5.03
2018-05-16T13:53:35.884Z,5.73
2018-05-16T13:56:04.297Z,6.60
2018-05-16T13:58:37.434Z,5.70
2018-05-16T14:01:06.554Z,6.37
2018-05-16T14:03:40.741Z,5.37
2018-05-16T14:06:20.019Z,6.60
2018-05-16T14:08:54.425Z,5.93
2018-05-16T14:11:24.677Z,5.57
2018-05-16T14:13:53.977Z,6.97
2018-05-16T14:16:29.059Z,7.03
2018-05-16T14:19:18.577Z,6.57
2018-05-16T14:21:52.528Z,5.57
2018-05-16T14:24:32.112Z,6.10
2018-05-16T14:27:03.623Z,5.90
2018-05-16T14:29:32.912Z,5.37
2018-05-16T14:32:01.336Z,5.10
2018-05-16T14:34:35.425Z,5.13
2018-05-16T14:37:05.004Z,4.97
2018-05-16T14:39:36.477Z,5.33
2018-05-16T14:42:11.352Z,4.43
2018-05-16T14:44:43.587Z,5.17
2018-05-16T14:47:15.446Z,4.43
2018-05-16T14:49:53.432Z,4.57
2018-05-16T14:52:22.728Z,3.73
2018-05-16T14:54:53.359Z,3.23
2018-05-16T14:57:22.044Z,3.50
2018-05-16T14:59:53.701Z,3.63
2018-05-16T15:02:26.416Z,3.83
2018-05-16T15:04:56.502Z,3.33
2018-05-16T15:07:26.180Z,3.60
2018-05-16T15:09:55.416Z,3.20
2018-05-16T15:12:23.700Z,3.03
2018-05-16T15:14:52.186Z,2.83
2018-05-16T15:17:25.293Z,3.37
2018-05-16T15:19:54.259Z,3.33
2018-05-16T15:22:26.341Z,3.40
2018-05-16T15:24:56.809Z,3.27
2018-05-16T15:27:27.137Z,3.17
2018-05-16T15:30:01.963Z,3.40
2018-05-16T15:32:30.296Z,3.93
2018-05-16T15:35:09.582Z,3.37
2018-05-16T15:37:38.022Z,3.70
2018-05-16T15:40:11.780Z,4.03
2018-05-16T15:42:43.767Z,3.73
2018-05-16T15:45:15.907Z,4.20
2018-05-16T15:47:46.179Z,3.60
2018-05-16T15:50:17.239Z,4.50
2018-05-16T15:52:53.335Z,4.40
2018-05-16T15:55:23.556Z,5.17
2018-05-16T15:57:53.790Z,5.07
2018-05-16T16:00:26.455Z,4.80
2018-05-16T16:02:55.815Z,4.63
2018-05-16T16:05:25.153Z,4.83
2018-05-16T16:07:54.579Z,4.47
2018-05-16T16:10:23.953Z,5.07
2018-05-16T16:12:53.312Z,4.43
2018-05-16T16:15:22.663Z,5.00
2018-05-16T16:17:52.730Z,5.13
2018-05-16T16:20:24.056Z,4.90
2018-05-16T16:22:52.309Z,4.67
2018-05-16T16:25:22.537Z,4.90
2018-05-16T16:27:50.955Z,4.33
2018-05-16T16:30:21.179Z,4.30
2018-05-16T16:32:50.349Z,4.77
2018-05-16T16:35:22.417Z,5.53
2018-05-16T16:37:57.090Z,4.43
2018-05-16T16:40:25.429Z,5.03
2018-05-16T16:43:07.263Z,4.90
2018-05-16T16:45:39.365Z,5.10
2018-05-16T16:48:13.366Z,4.87
2018-05-16T16:50:45.634Z,5.67
2018-05-16T16:53:17.093Z,4.17
2018-05-16T16:55:50.121Z,5.10
2018-05-16T16:58:21.253Z,5.23
2018-05-16T17:00:49.640Z,5.17
2018-05-16T17:03:26.783Z,5.87
2018-05-16T17:05:59.242Z,5.43
2018-05-16T17:08:29.550Z,5.53
2018-05-16T17:10:58.883Z,4.83
2018-05-16T17:13:31.291Z,5.47
2018-05-16T17:16:04.994Z,5.53
2018-05-16T17:18:44.658Z,4.90
2018-05-16T17:21:15.662Z,5.17
2018-05-16T17:23:43.968Z,4.93
2018-05-16T17:26:14.507Z,5.10
2018-05-16T17:28:43.602Z,5.90
2018-05-16T17:31:12.947Z,5.97
2018-05-16T17:34:01.207Z,5.47
2018-05-16T17:36:30.557Z,5.80
2018-05-16T17:39:05.856Z,6.03
2018-05-16T17:41:38.731Z,6.57
2018-05-16T17:44:18.395Z,6.90
2018-05-16T17:46:53.675Z,7.17
2018-05-16T17:49:34.390Z,6.30
2018-05-16T17:52:02.620Z,5.83
2018-05-16T17:54:35.115Z,5.70
2018-05-16T17:57:03.418Z,6.00
2018-05-16T17:59:31.759Z,6.47
2018-05-16T18:02:11.148Z,6.13
2018-05-16T18:04:47.585Z,6.73
2018-05-16T18:07:17.843Z,6.83
2018-05-16T18:09:46.338Z,6.30
2018-05-16T18:12:20.807Z,5.97
2018-05-16T18:18:04.028Z,6.37
2018-05-16T18:20:34.372Z,7.07
2018-05-16T18:23:02.673Z,6.93
2018-05-16T18:25:38.634Z,6.93
2018-05-16T18:28:15.508Z,7.37
2018-05-16T18:30:43.919Z,5.93
2018-05-16T18:33:17.801Z,7.63
2018-05-16T18:35:54.129Z,5.97
2018-05-16T18:38:26.285Z,6.77
2018-05-16T18:40:55.970Z,7.67
2018-05-16T18:43:27.703Z,7.70
2018-05-16T18:45:57.807Z,6.83
2018-05-16T18:48:27.076Z,6.67
2018-05-16T18:50:57.487Z,7.53
2018-05-16T18:53:27.385Z,7.20
2018-05-16T18:56:03.594Z,7.73
2018-05-16T18:58:33.921Z,8.50
2018-05-16T19:01:07.707Z,8.60
2018-05-16T19:03:41.748Z,8.07
2018-05-16T19:06:14.364Z,9.33
2018-05-16T19:08:50.927Z,8.47
2018-05-16T19:11:22.817Z,7.93
2018-05-16T19:13:53.381Z,7.60
2018-05-16T19:16:24.897Z,7.03
2018-05-16T19:18:53.455Z,8.10
2018-05-16T19:21:25.813Z,7.83
2018-05-16T19:23:54.992Z,7.27
2018-05-16T19:26:32.863Z,8.17
2018-05-16T19:29:01.212Z,8.73
2018-05-16T19:31:32.226Z,8.47
2018-05-16T19:34:00.694Z,7.90
2018-05-16T19:36:30.286Z,8.67
2018-05-16T19:38:58.604Z,8.00
2018-05-16T19:41:28.631Z,8.57
2018-05-16T19:44:01.294Z,8.93
2018-05-16T19:46:39.371Z,8.23
2018-05-16T19:49:10.744Z,8.03
2018-05-16T19:51:45.675Z,8.13
2018-05-16T19:54:15.854Z,8.83
2018-05-16T19:56:44.268Z,9.97
2018-05-16T19:59:20.160Z,10.63
2018-05-16T20:01:49.430Z,10.80
2018-05-16T20:04:23.827Z,9.33
2018-05-16T20:06:58.733Z,9.07
2018-05-16T20:09:27.995Z,10.27
2018-05-16T20:11:56.539Z,9.73
2018-05-16T20:14:27.420Z,11.33
2018-05-16T20:17:02.523Z,7.93
2018-05-16T20:19:34.644Z,7.97
2018-05-16T20:22:03.025Z,10.37
2018-05-16T20:24:31.435Z,9.93
2018-05-16T20:27:09.647Z,10.37
2018-05-16T20:29:37.986Z,9.73
2018-05-16T20:32:09.329Z,10.67
2018-05-16T20:34:39.501Z,9.57
2018-05-16T20:37:14.879Z,9.20
2018-05-16T20:39:50.989Z,9.30
2018-05-16T20:42:35.431Z,10.30
2018-05-16T20:48:03.388Z,9.07
2018-05-16T20:50:35.197Z,9.43
2018-05-16T20:53:06.132Z,10.80
2018-05-16T20:55:36.744Z,10.23
2018-05-16T20:58:06.600Z,11.40
2018-05-16T21:00:39.438Z,10.03
2018-05-16T21:03:08.769Z,9.27
2018-05-16T21:05:39.510Z,9.47
2018-05-16T21:08:10.299Z,9.13
2018-05-16T21:10:40.876Z,8.40
2018-05-16T21:13:11.430Z,9.97
2018-05-16T21:15:44.896Z,8.17
2018-05-16T21:18:22.117Z,8.43
2018-05-16T21:20:53.469Z,8.67
2018-05-16T21:23:28.039Z,9.10
2018-05-16T21:25:56.338Z,9.07
2018-05-16T21:28:30.340Z,8.57
2018-05-16T21:31:00.168Z,9.13
2018-05-16T21:33:37.372Z,8.90
2018-05-16T21:36:09.033Z,9.67
2018-05-16T21:38:38.226Z,9.93
2018-05-16T21:41:12.482Z,9.80
2018-05-16T21:43:43.400Z,9.60
2018-05-16T21:46:22.099Z,8.60
2018-05-16T21:48:55.847Z,9.13
2018-05-16T21:51:26.938Z,9.10
2018-05-16T21:54:05.004Z,9.83
2018-05-16T21:56:41.695Z,9.03
2018-05-16T21:59:10.107Z,9.37
2018-05-16T22:01:49.803Z,9.20
2018-05-16T22:07:04.196Z,11.13
2018-05-16T22:09:44.927Z,9.70
2018-05-16T22:12:18.972Z,9.30
2018-05-16T22:14:54.780Z,8.80
2018-05-16T22:17:33.525Z,8.47
2018-05-16T22:20:03.656Z,8.53
2018-05-16T22:22:42.036Z,8.80
2018-05-16T22:25:22.276Z,7.70
2018-05-16T22:27:53.339Z,8.93
2018-05-16T22:30:29.197Z,8.33
2018-05-16T22:33:04.308Z,8.60
2018-05-16T22:35:41.579Z,9.37
2018-05-16T22:38:15.733Z,7.53
2018-05-16T22:40:50.314Z,9.20
2018-05-16T22:43:24.391Z,10.20
2018-05-16T22:45:54.548Z,7.90
2018-05-16T22:48:22.807Z,8.70
2018-05-16T22:50:52.126Z,8.27
2018-05-16T22:53:21.437Z,8.73
2018-05-16T22:55:51.440Z,8.70
2018-05-16T22:58:19.716Z,9.03
2018-05-16T23:00:48.017Z,9.07
2018-05-16T23:03:16.270Z,8.70
2018-05-16T23:05:45.604Z,8.00
2018-05-16T23:08:14.696Z,8.30
2018-05-16T23:10:44.678Z,8.53
2018-05-16T23:13:12.957Z,7.60
2018-05-16T23:15:43.286Z,7.47
2018-05-16T23:18:12.618Z,8.20
2018-05-16T23:20:42.720Z,8.23
2018-05-16T23:23:11.024Z,9.33
2018-05-16T23:25:40.229Z,8.70
2018-05-16T23:28:08.461Z,8.90
2018-05-16T23:30:36.871Z,8.73
2018-05-16T23:33:05.927Z,9.40
2018-05-16T23:35:35.229Z,8.40
2018-05-16T23:38:10.685Z,9.53
2018-05-16T23:40:39.059Z,9.83
2018-05-16T23:43:07.329Z,7.63
2018-05-16T23:45:35.650Z,9.50
2018-05-16T23:48:04.103Z,8.63
2018-05-16T23:50:32.419Z,8.07
2018-05-16T23:53:15.438Z,8.93
2018-05-16T23:55:45.814Z,9.73
2018-05-16T23:58:20.430Z,9.77
